createdAt,value
2023-01-21T00:01:12.432Z,-0.48
2023-01-21T00:03:40.484Z,-0.44
2023-01-21T00:06:09.359Z,-0.41
2023-01-21T00:08:37.105Z,-0.35
2023-01-21T00:11:09.796Z,-0.40
2023-01-21T00:13:37.561Z,-0.38
2023-01-21T00:16:06.141Z,-0.43
2023-01-21T00:18:35.069Z,-0.47
2023-01-21T00:21:03.241Z,-0.43
2023-01-21T00:23:30.955Z,-0.46
2023-01-21T00:26:03.710Z,-0.45
2023-01-21T00:28:33.105Z,-0.48
2023-01-21T00:31:02.977Z,-0.53
2023-01-21T00:33:31.784Z,-0.48
2023-01-21T00:36:11.027Z,-0.48
2023-01-21T00:38:39.145Z,-0.48
2023-01-21T00:41:09.997Z,-0.60
2023-01-21T00:43:38.108Z,-0.74
2023-01-21T00:46:06.294Z,-0.76
2023-01-21T00:48:34.438Z,-0.81
2023-01-21T00:51:02.192Z,-0.91
2023-01-21T00:53:31.924Z,-1.04
2023-01-21T00:56:07.368Z,-1.00
2023-01-21T00:58:35.584Z,-1.02
2023-01-21T01:01:05.957Z,-1.12
2023-01-21T01:03:34.535Z,-1.20
2023-01-21T01:06:04.238Z,-1.28
2023-01-21T01:08:32.087Z,-1.40
2023-01-21T01:10:59.962Z,-1.54
2023-01-21T01:13:28.914Z,-1.69
2023-01-21T01:15:58.685Z,-1.83
2023-01-21T01:18:28.045Z,-2.06
2023-01-21T01:20:55.944Z,-2.17
2023-01-21T01:23:23.672Z,-2.25
2023-01-21T01:25:59.845Z,-2.34
2023-01-21T01:28:28.280Z,-2.35
2023-01-21T01:30:56.086Z,-2.41
2023-01-21T01:33:24.097Z,-2.48
2023-01-21T01:35:51.946Z,-2.53
2023-01-21T01:38:22.321Z,-2.51
2023-01-21T01:40:52.125Z,-2.46
2023-01-21T01:43:25.446Z,-2.46
2023-01-21T01:45:54.074Z,-2.48
2023-01-21T01:48:30.992Z,-2.52
2023-01-21T01:51:02.388Z,-2.51
2023-01-21T01:53:33.117Z,-2.52
2023-01-21T01:56:01.493Z,-2.59
2023-01-21T01:58:31.539Z,-2.57
2023-01-21T02:01:00.589Z,-2.56
2023-01-21T02:03:46.490Z,-2.58
2023-01-21T02:06:16.262Z,-2.57
2023-01-21T02:08:46.698Z,-2.58
2023-01-21T02:11:17.235Z,-2.62
2023-01-21T02:13:49.751Z,-2.63
2023-01-21T02:16:39.259Z,-2.74
2023-01-21T02:19:41.985Z,-2.79
2023-01-21T02:22:28.529Z,-2.84
2023-01-21T02:25:20.509Z,-2.87
2023-01-21T02:28:14.045Z,-2.72
2023-01-21T02:30:54.538Z,-2.57
2023-01-21T02:33:42.494Z,-2.49
2023-01-21T02:36:27.942Z,-2.36
2023-01-21T02:39:21.011Z,-2.21
2023-01-21T02:42:07.624Z,-2.09
2023-01-21T02:44:35.146Z,-2.00
2023-01-21T02:47:34.495Z,-1.93
2023-01-21T02:50:28.802Z,-1.81
2023-01-21T02:53:02.001Z,-1.70
2023-01-21T02:55:34.482Z,-1.65
2023-01-21T02:58:06.564Z,-1.59
2023-01-21T03:00:52.848Z,-1.49
2023-01-21T03:03:34.344Z,-1.49
2023-01-21T03:06:08.101Z,-1.44
2023-01-21T03:09:05.214Z,-1.49
2023-01-21T03:11:33.574Z,-1.62
2023-01-21T03:14:58.436Z,-1.65
2023-01-21T03:17:36.345Z,-1.76
2023-01-21T03:20:13.904Z,-1.84
2023-01-21T03:22:43.002Z,-1.90
2023-01-21T03:25:14.062Z,-1.91
2023-01-21T03:27:45.937Z,-1.83
2023-01-21T03:30:17.317Z,-1.73
2023-01-21T03:32:49.681Z,-1.75
2023-01-21T03:35:25.110Z,-1.77
2023-01-21T03:38:14.438Z,-1.74
2023-01-21T03:40:51.473Z,-1.69
2023-01-21T03:43:19.232Z,-1.63
2023-01-21T03:46:05.490Z,-1.61
2023-01-21T03:48:48.398Z,-1.61
2023-01-21T03:51:24.612Z,-1.70
2023-01-21T03:53:59.961Z,-1.81
2023-01-21T03:56:28.209Z,-1.93
2023-01-21T03:58:56.188Z,-2.02
2023-01-21T04:01:24.100Z,-2.07
2023-01-21T04:03:51.755Z,-2.17
2023-01-21T04:06:22.213Z,-2.21
2023-01-21T04:08:50.086Z,-2.15
2023-01-21T04:11:18.331Z,-2.11
2023-01-21T04:13:46.114Z,-2.05
2023-01-21T04:16:13.874Z,-1.95
2023-01-21T04:18:41.500Z,-1.85
2023-01-21T04:21:09.428Z,-1.83
2023-01-21T04:23:37.084Z,-1.73
2023-01-21T04:26:04.851Z,-1.68
2023-01-21T04:28:32.570Z,-1.61
2023-01-21T04:31:00.628Z,-1.59
2023-01-21T04:33:28.265Z,-1.60
2023-01-21T04:36:02.389Z,-1.59
2023-01-21T04:38:30.117Z,-1.70
2023-01-21T04:40:57.962Z,-1.66
2023-01-21T04:43:25.669Z,-1.63
2023-01-21T04:45:53.582Z,-1.57
2023-01-21T04:48:21.367Z,-1.60
2023-01-21T04:50:49.164Z,-1.63
2023-01-21T04:53:16.903Z,-1.62
2023-01-21T04:55:44.707Z,-1.57
2023-01-21T04:58:12.387Z,-1.60
2023-01-21T05:00:40.056Z,-1.91
2023-01-21T05:03:07.697Z,-2.01
2023-01-21T05:05:35.377Z,-2.18
2023-01-21T05:08:03.060Z,-2.36
2023-01-21T05:10:30.773Z,-2.35
2023-01-21T05:12:59.543Z,-2.31
2023-01-21T05:15:27.253Z,-2.28
2023-01-21T05:17:55.027Z,-2.18
2023-01-21T05:20:22.764Z,-2.16
2023-01-21T05:22:50.646Z,-2.12
2023-01-21T05:25:18.398Z,-2.02
2023-01-21T05:27:52.219Z,-2.03
2023-01-21T05:30:20.168Z,-1.97
2023-01-21T05:32:55.000Z,-1.95
2023-01-21T05:35:24.221Z,-1.94
2023-01-21T05:37:52.081Z,-2.03
2023-01-21T05:40:20.207Z,-2.04
2023-01-21T05:42:48.280Z,-2.07
2023-01-21T05:45:16.178Z,-2.03
2023-01-21T05:47:44.153Z,-2.01
2023-01-21T05:50:12.591Z,-2.07
2023-01-21T05:52:41.094Z,-2.14
2023-01-21T05:55:09.332Z,-2.21
2023-01-21T05:57:37.104Z,-2.28
2023-01-21T06:00:05.867Z,-2.29
2023-01-21T06:02:33.638Z,-2.27
2023-01-21T06:05:01.489Z,-2.21
2023-01-21T06:07:29.177Z,-2.23
2023-01-21T06:09:56.889Z,-2.28
2023-01-21T06:12:24.939Z,-2.36
2023-01-21T06:14:52.724Z,-2.38
2023-01-21T06:17:20.407Z,-2.42
2023-01-21T06:19:48.185Z,-2.42
2023-01-21T06:22:17.520Z,-2.42
2023-01-21T06:24:46.230Z,-2.36
2023-01-21T06:27:13.935Z,-2.30
2023-01-21T06:29:41.718Z,-2.27
2023-01-21T06:32:09.453Z,-2.27
2023-01-21T06:34:37.176Z,-2.25
2023-01-21T06:37:05.120Z,-2.24
2023-01-21T06:39:32.816Z,-2.24
2023-01-21T06:42:00.706Z,-2.22
2023-01-21T06:44:28.409Z,-2.17
2023-01-21T06:47:03.327Z,-2.18
2023-01-21T06:49:31.100Z,-2.20
2023-01-21T06:51:59.858Z,-2.25
2023-01-21T06:54:30.294Z,-2.32
2023-01-21T06:56:58.495Z,-2.36
2023-01-21T06:59:26.366Z,-2.34
2023-01-21T07:01:54.623Z,-2.36
2023-01-21T07:04:22.555Z,-2.37
2023-01-21T07:06:50.926Z,-2.36
2023-01-21T07:09:18.767Z,-2.35
2023-01-21T07:11:46.686Z,-2.33
2023-01-21T07:14:14.421Z,-2.31
2023-01-21T07:16:42.290Z,-2.38
2023-01-21T07:19:10.008Z,-2.31
2023-01-21T07:21:37.677Z,-2.29
2023-01-21T07:24:05.530Z,-2.28
2023-01-21T07:26:37.204Z,-2.29
2023-01-21T07:29:07.507Z,-2.29
2023-01-21T07:31:35.976Z,-2.26
2023-01-21T07:34:04.719Z,-2.26
2023-01-21T07:36:32.669Z,-2.28
2023-01-21T07:39:00.609Z,-2.26
2023-01-21T07:41:28.505Z,-2.23
2023-01-21T07:43:56.213Z,-2.21
2023-01-21T07:46:24.726Z,-2.27
2023-01-21T07:48:52.962Z,-2.26
2023-01-21T07:51:21.366Z,-2.23
2023-01-21T07:53:49.211Z,-2.35
2023-01-21T07:56:19.106Z,-2.36
2023-01-21T07:58:48.197Z,-2.36
2023-01-21T08:01:16.020Z,-2.43
2023-01-21T08:03:43.818Z,-2.44
2023-01-21T08:06:11.548Z,-2.45
2023-01-21T08:08:39.264Z,-2.45
2023-01-21T08:11:07.114Z,-2.43
2023-01-21T08:13:34.880Z,-2.47
2023-01-21T08:16:02.575Z,-2.44
2023-01-21T08:18:30.449Z,-2.42
2023-01-21T08:21:02.357Z,-2.40
2023-01-21T08:23:30.495Z,-2.35
2023-01-21T08:25:58.261Z,-2.29
2023-01-21T08:28:26.021Z,-2.34
2023-01-21T08:30:53.827Z,-2.32
2023-01-21T08:33:21.647Z,-2.23
2023-01-21T08:35:49.354Z,-2.24
2023-01-21T08:38:17.085Z,-2.17
2023-01-21T08:40:44.855Z,-2.13
2023-01-21T08:43:12.606Z,-2.08
2023-01-21T08:45:40.353Z,-2.02
2023-01-21T08:48:08.965Z,-1.93
2023-01-21T08:50:36.658Z,-1.84
2023-01-21T08:53:04.441Z,-1.78
2023-01-21T08:55:32.280Z,-1.69
2023-01-21T08:58:00.647Z,-1.61
2023-01-21T09:00:28.571Z,-1.64
2023-01-21T09:02:57.009Z,-1.58
2023-01-21T09:05:24.649Z,-1.47
2023-01-21T09:07:52.499Z,-1.40
2023-01-21T09:10:39.329Z,-1.34
2023-01-21T09:13:08.638Z,-1.22
2023-01-21T09:15:43.811Z,-1.10
2023-01-21T09:18:11.527Z,-1.06
2023-01-21T09:20:40.811Z,-0.95
2023-01-21T09:23:27.859Z,-0.88
2023-01-21T09:26:05.026Z,-0.82
2023-01-21T09:28:35.146Z,-0.79
2023-01-21T09:31:14.997Z,-0.80
2023-01-21T09:33:46.110Z,-0.73
2023-01-21T09:36:20.320Z,-0.56
2023-01-21T09:38:49.356Z,-0.53
2023-01-21T09:41:37.961Z,-0.43
2023-01-21T09:44:27.184Z,-0.50
2023-01-21T09:47:27.301Z,-0.51
2023-01-21T09:50:06.856Z,-0.38
2023-01-21T09:52:40.644Z,-0.28
2023-01-21T09:55:33.111Z,-0.28
2023-01-21T09:58:19.320Z,-0.20
2023-01-21T10:00:53.778Z,-0.14
2023-01-21T10:03:45.479Z,-0.16
2023-01-21T10:06:32.649Z,-0.13
2023-01-21T10:09:27.571Z,-0.15
2023-01-21T10:12:05.200Z,-0.15
2023-01-21T10:15:14.188Z,-0.08
2023-01-21T10:18:05.296Z,-0.03
2023-01-21T10:20:57.565Z,0.02
2023-01-21T10:23:36.594Z,0.08
2023-01-21T10:26:10.204Z,0.02
2023-01-21T10:28:42.917Z,-0.01
2023-01-21T10:31:33.870Z,-0.03
2023-01-21T10:34:01.678Z,-0.02
2023-01-21T10:37:00.064Z,0.04
2023-01-21T10:39:35.404Z,0.09
2023-01-21T10:42:05.761Z,0.18
2023-01-21T10:44:59.928Z,0.22
2023-01-21T10:47:30.365Z,0.23
2023-01-21T10:50:22.170Z,0.23
2023-01-21T10:53:11.674Z,0.18
2023-01-21T10:55:51.077Z,0.15
2023-01-21T10:58:26.571Z,0.08
2023-01-21T11:00:57.632Z,0.06
2023-01-21T11:03:39.939Z,0.09
2023-01-21T11:06:10.392Z,0.08
2023-01-21T11:08:39.576Z,0.03
2023-01-21T11:11:09.695Z,-0.05
2023-01-21T11:13:37.489Z,-0.07
2023-01-21T11:16:06.053Z,-0.09
2023-01-21T11:18:41.630Z,-0.11
2023-01-21T11:21:26.854Z,-0.12
2023-01-21T11:24:03.292Z,-0.17
2023-01-21T11:26:33.903Z,-0.17
2023-01-21T11:29:10.624Z,-0.18
2023-01-21T11:31:39.089Z,-0.20
2023-01-21T11:34:21.635Z,-0.18
2023-01-21T11:36:56.907Z,-0.16
2023-01-21T11:39:30.156Z,-0.21
2023-01-21T11:42:05.279Z,-0.29
2023-01-21T11:44:34.576Z,-0.39
2023-01-21T11:47:02.549Z,-0.39
2023-01-21T11:49:34.199Z,-0.45
2023-01-21T11:52:28.362Z,-0.51
2023-01-21T11:54:56.023Z,-0.57
2023-01-21T11:57:42.163Z,-0.55
2023-01-21T12:00:23.708Z,-0.53
2023-01-21T12:02:57.688Z,-0.54
2023-01-21T12:05:34.538Z,-0.58
2023-01-21T12:08:06.135Z,-0.65
2023-01-21T12:10:46.547Z,-0.63
2023-01-21T12:13:25.033Z,-0.59
2023-01-21T12:16:04.866Z,-0.55
2023-01-21T12:19:04.547Z,-0.48
2023-01-21T12:21:42.125Z,-0.39
2023-01-21T12:24:45.609Z,-0.35
2023-01-21T12:27:31.970Z,-0.32
2023-01-21T12:30:02.315Z,-0.30
2023-01-21T12:32:39.547Z,-0.29
2023-01-21T12:35:50.060Z,-0.21
2023-01-21T12:38:26.982Z,-0.17
2023-01-21T12:41:27.582Z,-0.14
2023-01-21T12:44:15.487Z,-0.12
2023-01-21T12:46:48.376Z,-0.11
2023-01-21T12:49:22.754Z,-0.11
2023-01-21T12:51:55.705Z,-0.09
2023-01-21T12:54:49.793Z,-0.10
2023-01-21T12:57:40.439Z,-0.14
2023-01-21T13:00:21.986Z,-0.04
2023-01-21T13:02:57.755Z,0.01
2023-01-21T13:05:55.956Z,0.04
2023-01-21T13:08:38.824Z,0.04
2023-01-21T13:11:22.712Z,0.08
2023-01-21T13:14:08.688Z,0.09
2023-01-21T13:16:40.856Z,0.14
2023-01-21T13:19:13.834Z,0.19
2023-01-21T13:22:10.077Z,0.21
2023-01-21T13:25:03.076Z,0.29
2023-01-21T13:27:53.092Z,0.30
2023-01-21T13:30:37.576Z,0.32
2023-01-21T13:33:29.602Z,0.34
2023-01-21T13:36:24.669Z,0.37
2023-01-21T13:39:30.063Z,0.40
2023-01-21T13:42:14.176Z,0.34
2023-01-21T13:45:00.099Z,0.30
2023-01-21T13:47:59.880Z,0.28
2023-01-21T13:50:52.481Z,0.24
2023-01-21T13:53:42.151Z,0.27
2023-01-21T13:56:12.407Z,0.25
2023-01-21T13:58:53.078Z,0.29
2023-01-21T14:01:45.539Z,0.31
2023-01-21T14:04:27.212Z,0.29
2023-01-21T14:07:28.920Z,0.27
2023-01-21T14:10:16.204Z,0.20
2023-01-21T14:13:11.702Z,0.17
2023-01-21T14:16:08.567Z,0.21
2023-01-21T14:18:54.800Z,0.23
2023-01-21T14:21:50.423Z,0.24
2023-01-21T14:24:32.121Z,0.21
2023-01-21T14:27:26.952Z,0.19
2023-01-21T14:30:16.255Z,0.23
2023-01-21T14:32:54.398Z,0.29
2023-01-21T14:35:37.265Z,0.32
2023-01-21T14:38:35.496Z,0.31
2023-01-21T14:41:13.845Z,0.30
2023-01-21T14:43:45.493Z,0.30
2023-01-21T14:46:25.397Z,0.33
2023-01-21T14:49:13.043Z,0.27
2023-01-21T14:51:51.055Z,0.33
2023-01-21T14:54:28.225Z,0.32
2023-01-21T14:57:10.221Z,0.32
2023-01-21T14:59:47.273Z,0.33
2023-01-21T15:02:42.422Z,0.44
2023-01-21T15:05:19.622Z,0.68
2023-01-21T15:07:51.959Z,0.81
2023-01-21T15:10:22.611Z,0.88
2023-01-21T15:12:55.045Z,0.95
2023-01-21T15:15:40.925Z,1.06
2023-01-21T15:18:11.574Z,1.20
2023-01-21T15:20:59.723Z,1.41
2023-01-21T15:23:30.433Z,1.35
2023-01-21T15:26:10.402Z,1.24
2023-01-21T15:28:50.662Z,1.15
2023-01-21T15:31:21.568Z,1.07
2023-01-21T15:34:10.673Z,1.13
2023-01-21T15:36:48.211Z,1.19
2023-01-21T15:39:28.830Z,1.19
2023-01-21T15:42:26.815Z,1.36
2023-01-21T15:45:21.995Z,1.34
2023-01-21T15:47:58.716Z,1.32
2023-01-21T15:50:36.359Z,1.34
2023-01-21T15:53:31.205Z,1.44
2023-01-21T15:56:17.100Z,1.35
2023-01-21T15:58:47.707Z,1.21
2023-01-21T16:01:30.777Z,1.18
2023-01-21T16:04:13.931Z,1.27
2023-01-21T16:07:19.053Z,1.25
2023-01-21T16:09:56.069Z,1.52
2023-01-21T16:12:44.834Z,1.45
2023-01-21T16:15:24.641Z,1.39
2023-01-21T16:18:09.578Z,1.34
2023-01-21T16:20:37.913Z,1.13
2023-01-21T16:23:08.790Z,1.19
2023-01-21T16:25:47.474Z,1.02
2023-01-21T16:28:15.567Z,1.24
2023-01-21T16:30:54.386Z,1.27
2023-01-21T16:33:22.226Z,1.27
2023-01-21T16:35:59.433Z,1.41
2023-01-21T16:38:32.513Z,1.49
2023-01-21T16:41:24.945Z,1.71
2023-01-21T16:43:56.883Z,1.93
2023-01-21T16:46:33.882Z,2.36
2023-01-21T16:49:05.789Z,2.52
2023-01-21T16:51:36.699Z,2.98
2023-01-21T16:54:29.307Z,3.53
2023-01-21T16:56:58.843Z,3.96
2023-01-21T16:59:45.744Z,4.22
2023-01-21T17:02:24.474Z,4.11
2023-01-21T17:04:52.486Z,4.16
2023-01-21T17:07:28.901Z,4.77
2023-01-21T17:10:09.686Z,5.25
2023-01-21T17:12:38.002Z,5.62
2023-01-21T17:15:19.259Z,6.00
2023-01-21T17:17:47.443Z,6.23
2023-01-21T17:20:55.705Z,6.57
2023-01-21T17:23:37.035Z,6.66
2023-01-21T17:26:07.706Z,6.97
2023-01-21T17:28:42.005Z,7.37
2023-01-21T17:31:24.015Z,7.95
2023-01-21T17:34:18.357Z,8.37
2023-01-21T17:36:48.255Z,8.70
2023-01-21T17:39:18.186Z,8.88
2023-01-21T17:41:46.771Z,9.20
2023-01-21T17:44:23.173Z,9.23
2023-01-21T17:46:55.721Z,9.59
2023-01-21T17:49:25.726Z,9.93
2023-01-21T17:51:57.655Z,10.13
2023-01-21T17:54:28.072Z,10.27
2023-01-21T17:57:00.898Z,10.36
2023-01-21T17:59:43.251Z,10.10
2023-01-21T18:02:17.345Z,9.26
2023-01-21T18:04:45.147Z,8.63
2023-01-21T18:07:23.915Z,7.72
2023-01-21T18:09:52.856Z,7.15
2023-01-21T18:12:21.103Z,6.83
2023-01-21T18:14:49.176Z,6.31
2023-01-21T18:17:20.147Z,6.03
2023-01-21T18:19:48.174Z,5.86
2023-01-21T18:22:24.230Z,5.67
2023-01-21T18:24:52.105Z,5.54
2023-01-21T18:27:21.727Z,5.26
2023-01-21T18:29:49.599Z,5.38
2023-01-21T18:32:18.304Z,4.97
2023-01-21T18:34:47.940Z,4.68
2023-01-21T18:37:18.409Z,4.57
2023-01-21T18:39:46.778Z,4.59
2023-01-21T18:42:16.474Z,4.41
2023-01-21T18:44:44.293Z,3.99
2023-01-21T18:47:16.671Z,3.60
2023-01-21T18:49:45.426Z,3.26
2023-01-21T18:52:18.594Z,2.96
2023-01-21T18:54:46.818Z,2.66
2023-01-21T18:57:21.133Z,2.31
2023-01-21T18:59:49.365Z,2.09
2023-01-21T19:02:20.226Z,1.86
2023-01-21T19:04:48.671Z,1.61
2023-01-21T19:07:17.331Z,1.41
2023-01-21T19:09:48.003Z,1.30
2023-01-21T19:12:18.073Z,1.14
2023-01-21T19:14:46.400Z,0.94
2023-01-21T19:17:16.836Z,0.82
2023-01-21T19:19:44.639Z,0.66
2023-01-21T19:22:16.484Z,0.50
2023-01-21T19:24:44.305Z,0.46
2023-01-21T19:27:29.567Z,0.39
2023-01-21T19:29:57.499Z,0.36
2023-01-21T19:32:25.231Z,0.27
2023-01-21T19:34:53.143Z,0.21
2023-01-21T19:37:24.375Z,0.18
2023-01-21T19:39:52.069Z,0.15
2023-01-21T19:42:19.850Z,0.13
2023-01-21T19:44:47.565Z,0.08
2023-01-21T19:47:21.961Z,0.16
2023-01-21T19:49:49.683Z,0.20
2023-01-21T19:52:17.368Z,0.31
2023-01-21T19:54:45.107Z,0.39
2023-01-21T19:57:19.175Z,0.43
2023-01-21T19:59:49.099Z,0.45
2023-01-21T20:02:16.872Z,0.49
2023-01-21T20:04:44.645Z,0.45
2023-01-21T20:07:16.999Z,0.47
2023-01-21T20:09:44.753Z,0.38
2023-01-21T20:12:14.089Z,0.32
2023-01-21T20:14:41.956Z,0.29
2023-01-21T20:17:14.486Z,0.27
2023-01-21T20:19:42.437Z,0.24
2023-01-21T20:22:11.639Z,0.20
2023-01-21T20:24:39.382Z,0.21
2023-01-21T20:27:09.639Z,0.18
2023-01-21T20:29:44.390Z,0.12
2023-01-21T20:32:12.436Z,0.13
2023-01-21T20:34:40.128Z,0.15
2023-01-21T20:37:07.858Z,0.15
2023-01-21T20:39:35.571Z,0.18
2023-01-21T20:42:03.262Z,0.26
2023-01-21T20:44:31.147Z,0.21
2023-01-21T20:47:01.820Z,0.16
2023-01-21T20:49:29.551Z,0.20
2023-01-21T20:51:57.492Z,0.19
2023-01-21T20:54:26.010Z,0.22
2023-01-21T20:56:53.726Z,0.25
2023-01-21T20:59:22.928Z,0.25
2023-01-21T21:01:52.722Z,0.18
2023-01-21T21:04:20.567Z,0.20
2023-01-21T21:06:48.375Z,0.18
2023-01-21T21:09:16.162Z,0.18
2023-01-21T21:11:44.240Z,0.21
2023-01-21T21:14:14.159Z,0.18
2023-01-21T21:16:41.941Z,0.18
2023-01-21T21:19:12.880Z,0.18
2023-01-21T21:21:40.724Z,0.18
2023-01-21T21:24:08.790Z,0.15
2023-01-21T21:26:38.550Z,0.15
2023-01-21T21:29:14.275Z,0.14
2023-01-21T21:31:42.149Z,0.12
2023-01-21T21:34:11.451Z,0.11
2023-01-21T21:36:42.989Z,0.15
2023-01-21T21:39:10.739Z,0.16
2023-01-21T21:41:57.440Z,0.18
2023-01-21T21:44:25.311Z,0.22
2023-01-21T21:47:11.564Z,0.20
2023-01-21T21:49:39.261Z,0.16
2023-01-21T21:52:07.092Z,0.14
2023-01-21T21:54:35.411Z,0.13
2023-01-21T21:57:03.086Z,0.11
2023-01-21T21:59:30.703Z,0.07
2023-01-21T22:02:01.794Z,0.00
2023-01-21T22:04:29.633Z,0.04
2023-01-21T22:06:57.403Z,0.08
2023-01-21T22:09:25.649Z,0.11
2023-01-21T22:11:53.625Z,0.16
2023-01-21T22:14:21.351Z,0.20
2023-01-21T22:16:51.075Z,0.20
2023-01-21T22:19:18.902Z,0.22
2023-01-21T22:21:46.865Z,0.17
2023-01-21T22:24:14.553Z,0.13
2023-01-21T22:26:42.741Z,0.11
2023-01-21T22:29:10.700Z,0.20
2023-01-21T22:31:38.785Z,0.27
2023-01-21T22:34:06.753Z,0.29
2023-01-21T22:36:34.489Z,0.22
2023-01-21T22:39:02.630Z,0.16
2023-01-21T22:41:30.490Z,0.16
2023-01-21T22:43:58.380Z,0.12
2023-01-21T22:46:30.993Z,0.07
2023-01-21T22:48:59.470Z,0.07
2023-01-21T22:51:27.991Z,0.06
2023-01-21T22:53:55.927Z,0.00
2023-01-21T22:56:44.931Z,-0.04
2023-01-21T22:59:12.980Z,-0.04
2023-01-21T23:01:40.971Z,-0.06
2023-01-21T23:04:09.917Z,-0.10
2023-01-21T23:06:38.231Z,-0.08
2023-01-21T23:09:09.185Z,-0.13
2023-01-21T23:11:39.177Z,-0.17
2023-01-21T23:14:09.573Z,-0.22
2023-01-21T23:16:37.452Z,-0.20
2023-01-21T23:19:05.232Z,-0.24
2023-01-21T23:21:33.097Z,-0.26
2023-01-21T23:24:00.895Z,-0.33
2023-01-21T23:26:28.750Z,-0.36
2023-01-21T23:28:57.873Z,-0.41
2023-01-21T23:31:26.488Z,-0.44
2023-01-21T23:33:56.850Z,-0.44
2023-01-21T23:36:24.879Z,-0.44
2023-01-21T23:38:52.683Z,-0.43
2023-01-21T23:41:22.224Z,-0.38
2023-01-21T23:43:49.899Z,-0.33
2023-01-21T23:46:20.674Z,-0.34
2023-01-21T23:48:48.912Z,-0.34
2023-01-21T23:51:18.266Z,-0.33
2023-01-21T23:53:48.747Z,-0.36
2023-01-21T23:56:18.417Z,-0.42
2023-01-21T23:58:46.252Z,-0.42
